sensor_id;sensor_type;location;lat;lon;timestamp;P1;durP1;ratioP1;P2;durP2;ratioP2
4355;SDS011;64374;51.482;7.408;2023-02-03T00:00:53;21.07;;;16.47;;
4355;SDS011;64374;51.482;7.408;2023-02-03T00:03:24;23.93;;;15.90;;
4355;SDS011;64374;51.482;7.408;2023-02-03T00:05:54;26.43;;;14.67;;
4355;SDS011;64374;51.482;7.408;2023-02-03T00:08:22;23.00;;;14.30;;
4355;SDS011;64374;51.482;7.408;2023-02-03T00:10:51;20.60;;;14.00;;
4355;SDS011;64374;51.482;7.408;2023-02-03T00:13:20;17.50;;;12.90;;
4355;SDS011;64374;51.482;7.408;2023-02-03T00:15:51;25.23;;;13.33;;
4355;SDS011;64374;51.482;7.408;2023-02-03T00:18:19;21.30;;;15.10;;
4355;SDS011;64374;51.482;7.408;2023-02-03T00:20:48;22.37;;;13.90;;
4355;SDS011;64374;51.482;7.408;2023-02-03T00:23:17;22.27;;;15.10;;
4355;SDS011;64374;51.482;7.408;2023-02-03T00:25:46;22.47;;;14.23;;
4355;SDS011;64374;51.482;7.408;2023-02-03T00:28:14;23.20;;;14.90;;
4355;SDS011;64374;51.482;7.408;2023-02-03T00:30:44;18.93;;;13.03;;
4355;SDS011;64374;51.482;7.408;2023-02-03T00:33:15;18.00;;;14.00;;
4355;SDS011;64374;51.482;7.408;2023-02-03T00:35:43;15.57;;;12.63;;
4355;SDS011;64374;51.482;7.408;2023-02-03T00:38:11;26.33;;;14.40;;
4355;SDS011;64374;51.482;7.408;2023-02-03T00:40:50;17.90;;;12.57;;
4355;SDS011;64374;51.482;7.408;2023-02-03T00:43:19;16.80;;;12.43;;
4355;SDS011;64374;51.482;7.408;2023-02-03T00:45:48;16.33;;;13.10;;
4355;SDS011;64374;51.482;7.408;2023-02-03T00:48:17;27.53;;;14.10;;
4355;SDS011;64374;51.482;7.408;2023-02-03T00:50:46;18.10;;;12.83;;
4355;SDS011;64374;51.482;7.408;2023-02-03T00:53:16;15.40;;;12.57;;
4355;SDS011;64374;51.482;7.408;2023-02-03T00:55:46;21.43;;;12.87;;
4355;SDS011;64374;51.482;7.408;2023-02-03T00:58:14;19.73;;;14.30;;
4355;SDS011;64374;51.482;7.408;2023-02-03T01:00:43;24.50;;;14.00;;
4355;SDS011;64374;51.482;7.408;2023-02-03T01:03:11;18.07;;;13.57;;
4355;SDS011;64374;51.482;7.408;2023-02-03T01:05:40;19.23;;;13.87;;
4355;SDS011;64374;51.482;7.408;2023-02-03T01:08:09;20.60;;;13.80;;
4355;SDS011;64374;51.482;7.408;2023-02-03T01:10:37;17.73;;;12.70;;
4355;SDS011;64374;51.482;7.408;2023-02-03T01:13:07;23.03;;;14.90;;
4355;SDS011;64374;51.482;7.408;2023-02-03T01:15:36;23.90;;;14.10;;
4355;SDS011;64374;51.482;7.408;2023-02-03T01:18:04;21.57;;;12.40;;
4355;SDS011;64374;51.482;7.408;2023-02-03T01:20:36;22.30;;;12.77;;
4355;SDS011;64374;51.482;7.408;2023-02-03T01:23:04;17.53;;;13.63;;
4355;SDS011;64374;51.482;7.408;2023-02-03T01:25:33;21.50;;;13.50;;
4355;SDS011;64374;51.482;7.408;2023-02-03T01:28:02;23.53;;;13.90;;
4355;SDS011;64374;51.482;7.408;2023-02-03T01:30:33;21.57;;;14.30;;
4355;SDS011;64374;51.482;7.408;2023-02-03T01:33:04;24.80;;;15.57;;
4355;SDS011;64374;51.482;7.408;2023-02-03T01:35:33;18.70;;;14.30;;
4355;SDS011;64374;51.482;7.408;2023-02-03T01:38:02;23.20;;;13.90;;
4355;SDS011;64374;51.482;7.408;2023-02-03T01:40:30;22.33;;;13.50;;
4355;SDS011;64374;51.482;7.408;2023-02-03T01:42:59;23.83;;;14.00;;
4355;SDS011;64374;51.482;7.408;2023-02-03T01:45:28;30.83;;;15.03;;
4355;SDS011;64374;51.482;7.408;2023-02-03T01:47:57;22.37;;;14.20;;
4355;SDS011;64374;51.482;7.408;2023-02-03T01:50:28;23.70;;;14.33;;
4355;SDS011;64374;51.482;7.408;2023-02-03T01:52:59;21.53;;;16.07;;
4355;SDS011;64374;51.482;7.408;2023-02-03T01:55:32;20.87;;;13.87;;
4355;SDS011;64374;51.482;7.408;2023-02-03T01:58:04;23.57;;;14.17;;
4355;SDS011;64374;51.482;7.408;2023-02-03T02:00:40;20.73;;;13.87;;
4355;SDS011;64374;51.482;7.408;2023-02-03T02:03:10;20.80;;;14.60;;
4355;SDS011;64374;51.482;7.408;2023-02-03T02:05:40;23.03;;;13.90;;
4355;SDS011;64374;51.482;7.408;2023-02-03T02:08:14;23.30;;;14.73;;
4355;SDS011;64374;51.482;7.408;2023-02-03T02:10:44;19.10;;;13.67;;
4355;SDS011;64374;51.482;7.408;2023-02-03T02:13:13;20.80;;;13.97;;
4355;SDS011;64374;51.482;7.408;2023-02-03T02:15:48;31.63;;;13.27;;
4355;SDS011;64374;51.482;7.408;2023-02-03T02:18:34;21.63;;;13.67;;
4355;SDS011;64374;51.482;7.408;2023-02-03T02:27:34;28.23;;;12.73;;
4355;SDS011;64374;51.482;7.408;2023-02-03T02:33:34;26.90;;;14.67;;
4355;SDS011;64374;51.482;7.408;2023-02-03T02:36:13;21.93;;;13.30;;
4355;SDS011;64374;51.482;7.408;2023-02-03T02:38:56;25.27;;;13.13;;
4355;SDS011;64374;51.482;7.408;2023-02-03T02:41:33;16.70;;;12.03;;
4355;SDS011;64374;51.482;7.408;2023-02-03T02:44:10;16.20;;;11.50;;
4355;SDS011;64374;51.482;7.408;2023-02-03T02:46:45;24.30;;;11.30;;
4355;SDS011;64374;51.482;7.408;2023-02-03T02:49:18;14.50;;;11.77;;
4355;SDS011;64374;51.482;7.408;2023-02-03T02:51:51;15.37;;;11.60;;
4355;SDS011;64374;51.482;7.408;2023-02-03T02:54:23;23.33;;;11.83;;
4355;SDS011;64374;51.482;7.408;2023-02-03T02:56:56;17.07;;;11.60;;
4355;SDS011;64374;51.482;7.408;2023-02-03T02:59:28;15.97;;;11.10;;
4355;SDS011;64374;51.482;7.408;2023-02-03T03:01:57;22.70;;;11.20;;
4355;SDS011;64374;51.482;7.408;2023-02-03T03:04:29;20.80;;;11.60;;
4355;SDS011;64374;51.482;7.408;2023-02-03T03:07:23;18.10;;;11.17;;
4355;SDS011;64374;51.482;7.408;2023-02-03T03:09:56;19.40;;;11.33;;
4355;SDS011;64374;51.482;7.408;2023-02-03T03:12:29;13.20;;;10.27;;
4355;SDS011;64374;51.482;7.408;2023-02-03T03:15:02;12.77;;;10.00;;
4355;SDS011;64374;51.482;7.408;2023-02-03T03:17:34;24.20;;;11.43;;
4355;SDS011;64374;51.482;7.408;2023-02-03T03:20:10;16.10;;;10.13;;
4355;SDS011;64374;51.482;7.408;2023-02-03T03:22:47;21.10;;;10.50;;
4355;SDS011;64374;51.482;7.408;2023-02-03T03:25:20;15.10;;;9.70;;
4355;SDS011;64374;51.482;7.408;2023-02-03T03:27:53;12.43;;;9.67;;
4355;SDS011;64374;51.482;7.408;2023-02-03T03:30:27;18.10;;;10.00;;
4355;SDS011;64374;51.482;7.408;2023-02-03T03:32:59;14.40;;;8.80;;
4355;SDS011;64374;51.482;7.408;2023-02-03T03:35:31;14.40;;;9.97;;
4355;SDS011;64374;51.482;7.408;2023-02-03T03:38:06;14.03;;;8.83;;
4355;SDS011;64374;51.482;7.408;2023-02-03T03:40:40;13.80;;;9.10;;
4355;SDS011;64374;51.482;7.408;2023-02-03T03:43:15;12.83;;;8.17;;
4355;SDS011;64374;51.482;7.408;2023-02-03T03:45:48;18.17;;;9.07;;
4355;SDS011;64374;51.482;7.408;2023-02-03T03:48:22;17.37;;;8.47;;
4355;SDS011;64374;51.482;7.408;2023-02-03T03:50:58;11.87;;;6.83;;
4355;SDS011;64374;51.482;7.408;2023-02-03T03:53:31;15.30;;;7.03;;
4355;SDS011;64374;51.482;7.408;2023-02-03T03:56:04;14.07;;;6.77;;
4355;SDS011;64374;51.482;7.408;2023-02-03T03:58:36;14.43;;;6.43;;
4355;SDS011;64374;51.482;7.408;2023-02-03T04:01:08;15.40;;;7.90;;
4355;SDS011;64374;51.482;7.408;2023-02-03T04:03:37;14.43;;;7.00;;
4355;SDS011;64374;51.482;7.408;2023-02-03T04:06:09;13.20;;;6.40;;
4355;SDS011;64374;51.482;7.408;2023-02-03T04:08:38;10.07;;;6.27;;
4355;SDS011;64374;51.482;7.408;2023-02-03T04:11:06;11.20;;;6.83;;
4355;SDS011;64374;51.482;7.408;2023-02-03T04:13:35;9.57;;;5.97;;
4355;SDS011;64374;51.482;7.408;2023-02-03T04:16:04;10.23;;;5.77;;
4355;SDS011;64374;51.482;7.408;2023-02-03T04:18:35;11.23;;;6.20;;
4355;SDS011;64374;51.482;7.408;2023-02-03T04:21:04;15.20;;;7.07;;
4355;SDS011;64374;51.482;7.408;2023-02-03T04:23:33;10.57;;;5.73;;
4355;SDS011;64374;51.482;7.408;2023-02-03T04:26:02;14.33;;;5.70;;
4355;SDS011;64374;51.482;7.408;2023-02-03T04:28:31;9.83;;;5.20;;
4355;SDS011;64374;51.482;7.408;2023-02-03T04:30:59;15.43;;;7.13;;
4355;SDS011;64374;51.482;7.408;2023-02-03T04:33:28;10.83;;;6.40;;
4355;SDS011;64374;51.482;7.408;2023-02-03T04:35:57;9.87;;;5.90;;
4355;SDS011;64374;51.482;7.408;2023-02-03T04:38:26;8.50;;;6.07;;
4355;SDS011;64374;51.482;7.408;2023-02-03T04:40:55;10.03;;;5.37;;
4355;SDS011;64374;51.482;7.408;2023-02-03T04:43:24;10.30;;;6.37;;
4355;SDS011;64374;51.482;7.408;2023-02-03T04:45:52;9.30;;;5.97;;
4355;SDS011;64374;51.482;7.408;2023-02-03T04:48:21;9.30;;;5.90;;
4355;SDS011;64374;51.482;7.408;2023-02-03T04:50:49;8.33;;;4.57;;
4355;SDS011;64374;51.482;7.408;2023-02-03T04:53:17;9.43;;;5.43;;
4355;SDS011;64374;51.482;7.408;2023-02-03T04:55:45;11.33;;;5.77;;
4355;SDS011;64374;51.482;7.408;2023-02-03T04:58:18;9.17;;;5.53;;
4355;SDS011;64374;51.482;7.408;2023-02-03T05:00:47;7.83;;;5.33;;
4355;SDS011;64374;51.482;7.408;2023-02-03T05:03:17;7.90;;;5.97;;
4355;SDS011;64374;51.482;7.408;2023-02-03T05:05:46;6.37;;;4.80;;
4355;SDS011;64374;51.482;7.408;2023-02-03T05:08:15;12.60;;;5.90;;
4355;SDS011;64374;51.482;7.408;2023-02-03T05:10:45;8.40;;;5.57;;
4355;SDS011;64374;51.482;7.408;2023-02-03T05:13:15;6.00;;;4.60;;
4355;SDS011;64374;51.482;7.408;2023-02-03T05:15:43;9.33;;;6.07;;
4355;SDS011;64374;51.482;7.408;2023-02-03T05:18:12;9.10;;;5.50;;
4355;SDS011;64374;51.482;7.408;2023-02-03T05:20:40;18.03;;;5.90;;
4355;SDS011;64374;51.482;7.408;2023-02-03T05:23:09;10.17;;;6.77;;
4355;SDS011;64374;51.482;7.408;2023-02-03T05:25:42;9.40;;;6.03;;
4355;SDS011;64374;51.482;7.408;2023-02-03T05:28:12;10.53;;;5.87;;
4355;SDS011;64374;51.482;7.408;2023-02-03T05:30:41;14.93;;;5.03;;
4355;SDS011;64374;51.482;7.408;2023-02-03T05:33:10;9.80;;;5.60;;
4355;SDS011;64374;51.482;7.408;2023-02-03T05:35:38;11.27;;;5.63;;
4355;SDS011;64374;51.482;7.408;2023-02-03T05:38:29;8.50;;;5.27;;
4355;SDS011;64374;51.482;7.408;2023-02-03T05:40:57;6.67;;;4.43;;
4355;SDS011;64374;51.482;7.408;2023-02-03T05:43:43;10.90;;;4.90;;
4355;SDS011;64374;51.482;7.408;2023-02-03T05:46:13;10.17;;;5.10;;
4355;SDS011;64374;51.482;7.408;2023-02-03T05:48:42;8.83;;;4.00;;
4355;SDS011;64374;51.482;7.408;2023-02-03T05:51:10;11.83;;;5.37;;
4355;SDS011;64374;51.482;7.408;2023-02-03T05:53:38;5.90;;;4.40;;
4355;SDS011;64374;51.482;7.408;2023-02-03T05:56:07;10.77;;;5.23;;
4355;SDS011;64374;51.482;7.408;2023-02-03T05:58:35;8.53;;;4.50;;
4355;SDS011;64374;51.482;7.408;2023-02-03T06:01:03;14.87;;;5.27;;
4355;SDS011;64374;51.482;7.408;2023-02-03T06:03:33;11.03;;;4.20;;
4355;SDS011;64374;51.482;7.408;2023-02-03T06:06:02;11.13;;;4.37;;
4355;SDS011;64374;51.482;7.408;2023-02-03T06:08:30;9.40;;;5.17;;
4355;SDS011;64374;51.482;7.408;2023-02-03T06:10:58;8.77;;;4.30;;
4355;SDS011;64374;51.482;7.408;2023-02-03T06:13:28;11.20;;;4.30;;
4355;SDS011;64374;51.482;7.408;2023-02-03T06:15:56;8.67;;;4.70;;
4355;SDS011;64374;51.482;7.408;2023-02-03T06:18:24;6.30;;;4.20;;
4355;SDS011;64374;51.482;7.408;2023-02-03T06:20:55;6.70;;;3.87;;
4355;SDS011;64374;51.482;7.408;2023-02-03T06:23:23;10.07;;;3.63;;
4355;SDS011;64374;51.482;7.408;2023-02-03T06:25:52;15.63;;;4.57;;
4355;SDS011;64374;51.482;7.408;2023-02-03T06:28:20;6.17;;;4.00;;
4355;SDS011;64374;51.482;7.408;2023-02-03T06:30:49;12.50;;;4.77;;
4355;SDS011;64374;51.482;7.408;2023-02-03T06:33:18;5.27;;;3.57;;
4355;SDS011;64374;51.482;7.408;2023-02-03T06:35:47;10.83;;;4.20;;
4355;SDS011;64374;51.482;7.408;2023-02-03T06:38:16;5.90;;;3.93;;
4355;SDS011;64374;51.482;7.408;2023-02-03T06:40:45;6.00;;;4.20;;
4355;SDS011;64374;51.482;7.408;2023-02-03T06:43:14;6.67;;;5.00;;
4355;SDS011;64374;51.482;7.408;2023-02-03T06:45:44;10.40;;;3.87;;
4355;SDS011;64374;51.482;7.408;2023-02-03T06:48:14;6.30;;;3.90;;
4355;SDS011;64374;51.482;7.408;2023-02-03T06:50:44;14.90;;;4.63;;
4355;SDS011;64374;51.482;7.408;2023-02-03T06:53:16;10.23;;;5.03;;
4355;SDS011;64374;51.482;7.408;2023-02-03T06:55:45;12.97;;;4.67;;
4355;SDS011;64374;51.482;7.408;2023-02-03T06:58:14;10.33;;;4.80;;
4355;SDS011;64374;51.482;7.408;2023-02-03T07:00:42;7.83;;;4.30;;
4355;SDS011;64374;51.482;7.408;2023-02-03T07:03:10;6.87;;;4.87;;
4355;SDS011;64374;51.482;7.408;2023-02-03T07:05:39;11.50;;;5.13;;
4355;SDS011;64374;51.482;7.408;2023-02-03T07:08:07;7.00;;;4.73;;
4355;SDS011;64374;51.482;7.408;2023-02-03T07:10:36;15.33;;;5.03;;
4355;SDS011;64374;51.482;7.408;2023-02-03T07:13:06;6.77;;;4.70;;
4355;SDS011;64374;51.482;7.408;2023-02-03T07:15:34;12.87;;;5.60;;
4355;SDS011;64374;51.482;7.408;2023-02-03T07:18:04;6.23;;;5.63;;
4355;SDS011;64374;51.482;7.408;2023-02-03T07:20:32;8.20;;;5.07;;
4355;SDS011;64374;51.482;7.408;2023-02-03T07:23:01;9.83;;;5.97;;
4355;SDS011;64374;51.482;7.408;2023-02-03T07:25:30;8.00;;;4.47;;
4355;SDS011;64374;51.482;7.408;2023-02-03T07:28:00;9.07;;;4.73;;
4355;SDS011;64374;51.482;7.408;2023-02-03T07:30:28;13.70;;;6.67;;
4355;SDS011;64374;51.482;7.408;2023-02-03T07:32:56;7.33;;;5.63;;
4355;SDS011;64374;51.482;7.408;2023-02-03T07:35:25;8.97;;;5.03;;
4355;SDS011;64374;51.482;7.408;2023-02-03T07:37:53;10.10;;;5.10;;
4355;SDS011;64374;51.482;7.408;2023-02-03T07:40:22;9.20;;;5.23;;
4355;SDS011;64374;51.482;7.408;2023-02-03T07:42:51;7.33;;;4.83;;
4355;SDS011;64374;51.482;7.408;2023-02-03T07:45:21;6.07;;;4.83;;
4355;SDS011;64374;51.482;7.408;2023-02-03T07:47:50;7.93;;;5.63;;
4355;SDS011;64374;51.482;7.408;2023-02-03T07:50:18;10.77;;;5.23;;
4355;SDS011;64374;51.482;7.408;2023-02-03T07:52:49;14.73;;;5.07;;
4355;SDS011;64374;51.482;7.408;2023-02-03T07:55:18;10.03;;;5.77;;
4355;SDS011;64374;51.482;7.408;2023-02-03T07:57:46;8.00;;;5.53;;
4355;SDS011;64374;51.482;7.408;2023-02-03T08:00:15;8.57;;;5.00;;
4355;SDS011;64374;51.482;7.408;2023-02-03T08:02:46;10.97;;;6.87;;
4355;SDS011;64374;51.482;7.408;2023-02-03T08:05:15;9.50;;;6.20;;
4355;SDS011;64374;51.482;7.408;2023-02-03T08:07:44;9.20;;;6.27;;
4355;SDS011;64374;51.482;7.408;2023-02-03T08:10:13;12.27;;;6.47;;
4355;SDS011;64374;51.482;7.408;2023-02-03T08:12:42;10.63;;;6.70;;
4355;SDS011;64374;51.482;7.408;2023-02-03T08:15:12;17.20;;;7.17;;
4355;SDS011;64374;51.482;7.408;2023-02-03T08:17:42;11.10;;;6.90;;
4355;SDS011;64374;51.482;7.408;2023-02-03T08:20:12;12.47;;;7.00;;
4355;SDS011;64374;51.482;7.408;2023-02-03T08:22:40;8.00;;;4.97;;
4355;SDS011;64374;51.482;7.408;2023-02-03T08:25:09;9.50;;;7.10;;
4355;SDS011;64374;51.482;7.408;2023-02-03T08:27:38;8.03;;;5.10;;
4355;SDS011;64374;51.482;7.408;2023-02-03T08:30:07;11.37;;;6.37;;
4355;SDS011;64374;51.482;7.408;2023-02-03T08:32:39;10.20;;;5.37;;
4355;SDS011;64374;51.482;7.408;2023-02-03T08:35:07;7.73;;;5.33;;
4355;SDS011;64374;51.482;7.408;2023-02-03T08:37:39;11.47;;;5.60;;
4355;SDS011;64374;51.482;7.408;2023-02-03T08:40:09;7.00;;;5.10;;
4355;SDS011;64374;51.482;7.408;2023-02-03T08:42:40;8.57;;;5.57;;
4355;SDS011;64374;51.482;7.408;2023-02-03T08:45:09;12.10;;;6.83;;
4355;SDS011;64374;51.482;7.408;2023-02-03T08:47:37;8.57;;;6.00;;
4355;SDS011;64374;51.482;7.408;2023-02-03T08:50:06;8.50;;;6.20;;
4355;SDS011;64374;51.482;7.408;2023-02-03T08:52:37;14.43;;;6.47;;
4355;SDS011;64374;51.482;7.408;2023-02-03T08:55:05;9.93;;;5.60;;
4355;SDS011;64374;51.482;7.408;2023-02-03T08:57:34;7.50;;;5.03;;
4355;SDS011;64374;51.482;7.408;2023-02-03T09:00:04;11.90;;;5.07;;
4355;SDS011;64374;51.482;7.408;2023-02-03T09:02:33;7.93;;;5.43;;
4355;SDS011;64374;51.482;7.408;2023-02-03T09:05:03;7.10;;;5.37;;
4355;SDS011;64374;51.482;7.408;2023-02-03T09:07:31;15.57;;;5.93;;
4355;SDS011;64374;51.482;7.408;2023-02-03T09:10:01;10.53;;;5.83;;
4355;SDS011;64374;51.482;7.408;2023-02-03T09:12:30;19.10;;;5.60;;
4355;SDS011;64374;51.482;7.408;2023-02-03T09:14:58;10.87;;;6.40;;
4355;SDS011;64374;51.482;7.408;2023-02-03T09:17:26;9.30;;;5.70;;
4355;SDS011;64374;51.482;7.408;2023-02-03T09:19:54;12.50;;;6.60;;
4355;SDS011;64374;51.482;7.408;2023-02-03T09:22:22;9.00;;;5.40;;
4355;SDS011;64374;51.482;7.408;2023-02-03T09:24:51;7.73;;;5.33;;
4355;SDS011;64374;51.482;7.408;2023-02-03T09:27:21;17.13;;;5.83;;
4355;SDS011;64374;51.482;7.408;2023-02-03T09:29:49;10.10;;;6.67;;
4355;SDS011;64374;51.482;7.408;2023-02-03T09:32:17;9.90;;;5.17;;
4355;SDS011;64374;51.482;7.408;2023-02-03T09:34:46;7.13;;;6.30;;
4355;SDS011;64374;51.482;7.408;2023-02-03T09:37:14;10.87;;;7.20;;
4355;SDS011;64374;51.482;7.408;2023-02-03T09:39:43;9.07;;;6.20;;
4355;SDS011;64374;51.482;7.408;2023-02-03T09:42:16;8.77;;;5.97;;
4355;SDS011;64374;51.482;7.408;2023-02-03T09:44:57;12.63;;;6.20;;
4355;SDS011;64374;51.482;7.408;2023-02-03T09:47:31;13.40;;;6.03;;
4355;SDS011;64374;51.482;7.408;2023-02-03T09:50:03;8.60;;;6.77;;
4355;SDS011;64374;51.482;7.408;2023-02-03T09:52:38;12.83;;;6.73;;
4355;SDS011;64374;51.482;7.408;2023-02-03T09:55:12;8.70;;;6.33;;
4355;SDS011;64374;51.482;7.408;2023-02-03T09:57:57;15.00;;;6.57;;
4355;SDS011;64374;51.482;7.408;2023-02-03T10:00:30;12.10;;;7.53;;
4355;SDS011;64374;51.482;7.408;2023-02-03T10:03:03;10.63;;;5.33;;
4355;SDS011;64374;51.482;7.408;2023-02-03T10:05:49;10.23;;;5.77;;
4355;SDS011;64374;51.482;7.408;2023-02-03T10:08:42;9.07;;;5.27;;
4355;SDS011;64374;51.482;7.408;2023-02-03T10:11:35;10.03;;;6.40;;
4355;SDS011;64374;51.482;7.408;2023-02-03T10:14:21;12.53;;;6.90;;
4355;SDS011;64374;51.482;7.408;2023-02-03T10:16:59;9.87;;;5.67;;
4355;SDS011;64374;51.482;7.408;2023-02-03T10:19:41;9.73;;;6.43;;
4355;SDS011;64374;51.482;7.408;2023-02-03T10:22:16;11.30;;;6.80;;
4355;SDS011;64374;51.482;7.408;2023-02-03T10:24:48;8.43;;;6.83;;
4355;SDS011;64374;51.482;7.408;2023-02-03T10:27:22;13.70;;;5.77;;
4355;SDS011;64374;51.482;7.408;2023-02-03T10:29:55;20.00;;;7.50;;
4355;SDS011;64374;51.482;7.408;2023-02-03T10:32:26;10.03;;;6.17;;
4355;SDS011;64374;51.482;7.408;2023-02-03T10:34:55;7.60;;;5.90;;
4355;SDS011;64374;51.482;7.408;2023-02-03T10:37:25;13.23;;;6.73;;
4355;SDS011;64374;51.482;7.408;2023-02-03T10:39:58;19.27;;;7.90;;
4355;SDS011;64374;51.482;7.408;2023-02-03T10:42:28;21.20;;;7.67;;
4355;SDS011;64374;51.482;7.408;2023-02-03T10:45:21;16.70;;;7.23;;
4355;SDS011;64374;51.482;7.408;2023-02-03T10:47:50;10.13;;;7.00;;
4355;SDS011;64374;51.482;7.408;2023-02-03T10:50:22;13.50;;;6.50;;
4355;SDS011;64374;51.482;7.408;2023-02-03T10:55:48;10.10;;;6.23;;
4355;SDS011;64374;51.482;7.408;2023-02-03T10:58:20;11.07;;;6.63;;
4355;SDS011;64374;51.482;7.408;2023-02-03T11:00:55;9.13;;;7.40;;
4355;SDS011;64374;51.482;7.408;2023-02-03T11:03:33;16.10;;;7.07;;
4355;SDS011;64374;51.482;7.408;2023-02-03T11:06:07;14.30;;;6.87;;
4355;SDS011;64374;51.482;7.408;2023-02-03T11:08:38;11.73;;;6.70;;
4355;SDS011;64374;51.482;7.408;2023-02-03T11:11:13;10.43;;;7.23;;
4355;SDS011;64374;51.482;7.408;2023-02-03T11:13:50;11.50;;;6.73;;
4355;SDS011;64374;51.482;7.408;2023-02-03T11:16:21;19.77;;;8.77;;
4355;SDS011;64374;51.482;7.408;2023-02-03T11:19:13;14.90;;;7.93;;
4355;SDS011;64374;51.482;7.408;2023-02-03T11:21:44;11.37;;;7.10;;
4355;SDS011;64374;51.482;7.408;2023-02-03T11:24:17;14.90;;;7.73;;
4355;SDS011;64374;51.482;7.408;2023-02-03T11:26:48;16.13;;;7.70;;
4355;SDS011;64374;51.482;7.408;2023-02-03T11:29:21;13.80;;;5.63;;
4355;SDS011;64374;51.482;7.408;2023-02-03T11:31:55;16.07;;;5.80;;
4355;SDS011;64374;51.482;7.408;2023-02-03T11:34:26;11.43;;;5.60;;
4355;SDS011;64374;51.482;7.408;2023-02-03T11:36:58;12.00;;;5.00;;
4355;SDS011;64374;51.482;7.408;2023-02-03T11:39:54;13.27;;;6.00;;
4355;SDS011;64374;51.482;7.408;2023-02-03T11:42:23;9.00;;;4.40;;
4355;SDS011;64374;51.482;7.408;2023-02-03T11:44:52;6.80;;;4.73;;
4355;SDS011;64374;51.482;7.408;2023-02-03T11:47:44;10.33;;;5.00;;
4355;SDS011;64374;51.482;7.408;2023-02-03T11:50:17;8.87;;;5.80;;
4355;SDS011;64374;51.482;7.408;2023-02-03T11:53:09;13.90;;;6.40;;
4355;SDS011;64374;51.482;7.408;2023-02-03T11:55:53;10.57;;;4.97;;
4355;SDS011;64374;51.482;7.408;2023-02-03T11:58:42;9.63;;;5.30;;
4355;SDS011;64374;51.482;7.408;2023-02-03T12:01:22;13.53;;;4.30;;
4355;SDS011;64374;51.482;7.408;2023-02-03T12:04:19;11.50;;;5.33;;
4355;SDS011;64374;51.482;7.408;2023-02-03T12:07:05;11.00;;;4.27;;
4355;SDS011;64374;51.482;7.408;2023-02-03T12:09:54;16.47;;;4.50;;
4355;SDS011;64374;51.482;7.408;2023-02-03T12:12:37;11.07;;;4.27;;
4355;SDS011;64374;51.482;7.408;2023-02-03T12:15:23;7.40;;;4.40;;
4355;SDS011;64374;51.482;7.408;2023-02-03T12:18:15;14.27;;;6.20;;
4355;SDS011;64374;51.482;7.408;2023-02-03T12:20:56;10.83;;;4.40;;
4355;SDS011;64374;51.482;7.408;2023-02-03T12:23:39;14.80;;;4.63;;
4355;SDS011;64374;51.482;7.408;2023-02-03T12:26:17;10.90;;;4.50;;
4355;SDS011;64374;51.482;7.408;2023-02-03T12:28:55;11.90;;;5.30;;
4355;SDS011;64374;51.482;7.408;2023-02-03T12:31:31;13.37;;;4.90;;
4355;SDS011;64374;51.482;7.408;2023-02-03T12:34:08;15.50;;;4.93;;
4355;SDS011;64374;51.482;7.408;2023-02-03T12:36:44;12.60;;;4.80;;
4355;SDS011;64374;51.482;7.408;2023-02-03T12:39:17;8.87;;;4.77;;
4355;SDS011;64374;51.482;7.408;2023-02-03T12:41:53;10.33;;;5.30;;
4355;SDS011;64374;51.482;7.408;2023-02-03T12:44:28;10.10;;;4.37;;
4355;SDS011;64374;51.482;7.408;2023-02-03T12:47:02;11.57;;;3.87;;
4355;SDS011;64374;51.482;7.408;2023-02-03T12:49:39;9.20;;;4.87;;
4355;SDS011;64374;51.482;7.408;2023-02-03T12:52:21;8.90;;;5.60;;
4355;SDS011;64374;51.482;7.408;2023-02-03T12:54:56;13.07;;;5.20;;
4355;SDS011;64374;51.482;7.408;2023-02-03T12:57:33;12.40;;;4.93;;
4355;SDS011;64374;51.482;7.408;2023-02-03T13:00:12;17.90;;;5.33;;
4355;SDS011;64374;51.482;7.408;2023-02-03T13:02:51;10.30;;;3.90;;
4355;SDS011;64374;51.482;7.408;2023-02-03T13:05:32;10.10;;;3.90;;
4355;SDS011;64374;51.482;7.408;2023-02-03T13:08:12;8.47;;;4.43;;
4355;SDS011;64374;51.482;7.408;2023-02-03T13:10:46;10.10;;;3.70;;
4355;SDS011;64374;51.482;7.408;2023-02-03T13:13:22;5.90;;;3.70;;
4355;SDS011;64374;51.482;7.408;2023-02-03T13:15:56;9.47;;;4.30;;
4355;SDS011;64374;51.482;7.408;2023-02-03T13:18:27;9.60;;;4.60;;
4355;SDS011;64374;51.482;7.408;2023-02-03T13:21:02;11.87;;;3.83;;
4355;SDS011;64374;51.482;7.408;2023-02-03T13:23:35;12.63;;;4.03;;
4355;SDS011;64374;51.482;7.408;2023-02-03T13:26:17;10.33;;;3.57;;
4355;SDS011;64374;51.482;7.408;2023-02-03T13:29:03;9.90;;;3.50;;
4355;SDS011;64374;51.482;7.408;2023-02-03T13:31:42;9.00;;;3.73;;
4355;SDS011;64374;51.482;7.408;2023-02-03T13:34:26;10.80;;;3.70;;
4355;SDS011;64374;51.482;7.408;2023-02-03T13:37:15;5.10;;;3.03;;
4355;SDS011;64374;51.482;7.408;2023-02-03T13:40:10;14.33;;;4.03;;
4355;SDS011;64374;51.482;7.408;2023-02-03T13:42:46;10.07;;;3.20;;
4355;SDS011;64374;51.482;7.408;2023-02-03T13:45:23;9.90;;;4.00;;
4355;SDS011;64374;51.482;7.408;2023-02-03T13:48:03;9.27;;;3.80;;
4355;SDS011;64374;51.482;7.408;2023-02-03T13:50:36;12.70;;;4.33;;
4355;SDS011;64374;51.482;7.408;2023-02-03T13:53:12;16.47;;;3.40;;
4355;SDS011;64374;51.482;7.408;2023-02-03T13:55:51;17.07;;;4.40;;
4355;SDS011;64374;51.482;7.408;2023-02-03T13:58:23;15.03;;;3.47;;
4355;SDS011;64374;51.482;7.408;2023-02-03T14:03:59;13.40;;;3.60;;
4355;SDS011;64374;51.482;7.408;2023-02-03T14:09:35;16.33;;;3.80;;
4355;SDS011;64374;51.482;7.408;2023-02-03T14:12:19;23.13;;;4.10;;
4355;SDS011;64374;51.482;7.408;2023-02-03T14:14:55;13.73;;;3.80;;
4355;SDS011;64374;51.482;7.408;2023-02-03T14:23:53;16.53;;;3.33;;
4355;SDS011;64374;51.482;7.408;2023-02-03T14:26:34;21.67;;;4.60;;
4355;SDS011;64374;51.482;7.408;2023-02-03T14:29:10;19.80;;;5.37;;
4355;SDS011;64374;51.482;7.408;2023-02-03T14:31:52;25.43;;;4.47;;
4355;SDS011;64374;51.482;7.408;2023-02-03T14:34:29;13.97;;;5.30;;
4355;SDS011;64374;51.482;7.408;2023-02-03T14:37:10;28.63;;;4.50;;
4355;SDS011;64374;51.482;7.408;2023-02-03T14:39:56;23.70;;;4.40;;
4355;SDS011;64374;51.482;7.408;2023-02-03T14:42:52;19.10;;;4.70;;
4355;SDS011;64374;51.482;7.408;2023-02-03T14:45:43;15.93;;;3.87;;
4355;SDS011;64374;51.482;7.408;2023-02-03T14:48:29;15.57;;;4.83;;
4355;SDS011;64374;51.482;7.408;2023-02-03T14:51:11;28.60;;;4.93;;
4355;SDS011;64374;51.482;7.408;2023-02-03T14:54:01;16.40;;;4.50;;
4355;SDS011;64374;51.482;7.408;2023-02-03T14:56:49;16.77;;;4.30;;
4355;SDS011;64374;51.482;7.408;2023-02-03T14:59:46;27.53;;;5.40;;
4355;SDS011;64374;51.482;7.408;2023-02-03T15:02:19;17.63;;;4.10;;
4355;SDS011;64374;51.482;7.408;2023-02-03T15:08:03;17.90;;;4.83;;
4355;SDS011;64374;51.482;7.408;2023-02-03T15:10:52;15.20;;;4.53;;
4355;SDS011;64374;51.482;7.408;2023-02-03T15:13:23;17.43;;;3.90;;
4355;SDS011;64374;51.482;7.408;2023-02-03T15:15:53;22.13;;;5.13;;
4355;SDS011;64374;51.482;7.408;2023-02-03T15:18:28;15.50;;;3.60;;
4355;SDS011;64374;51.482;7.408;2023-02-03T15:20:57;11.57;;;3.83;;
4355;SDS011;64374;51.482;7.408;2023-02-03T15:23:27;18.70;;;4.40;;
4355;SDS011;64374;51.482;7.408;2023-02-03T15:25:57;25.13;;;6.00;;
4355;SDS011;64374;51.482;7.408;2023-02-03T15:28:28;17.30;;;4.60;;
4355;SDS011;64374;51.482;7.408;2023-02-03T15:30:57;27.33;;;5.40;;
4355;SDS011;64374;51.482;7.408;2023-02-03T15:33:54;18.77;;;6.33;;
4355;SDS011;64374;51.482;7.408;2023-02-03T15:36:29;16.37;;;4.93;;
4355;SDS011;64374;51.482;7.408;2023-02-03T15:39:07;19.53;;;5.30;;
4355;SDS011;64374;51.482;7.408;2023-02-03T15:41:43;15.53;;;4.10;;
4355;SDS011;64374;51.482;7.408;2023-02-03T15:44:25;14.97;;;4.57;;
4355;SDS011;64374;51.482;7.408;2023-02-03T15:46:57;22.27;;;4.70;;
4355;SDS011;64374;51.482;7.408;2023-02-03T15:49:31;20.63;;;7.00;;
4355;SDS011;64374;51.482;7.408;2023-02-03T15:52:06;20.47;;;5.30;;